sensor_id;sensor_type;location;lat;lon;timestamp;P1;durP1;ratioP1;P2;durP2;ratioP2
4903;SDS011;2467;48.142;11.616;2022-10-03T00:00:10;4.60;;;4.20;;
4903;SDS011;2467;48.142;11.616;2022-10-03T00:00:57;3.78;;;3.40;;
4903;SDS011;2467;48.142;11.616;2022-10-03T00:01:57;3.90;;;3.60;;
4903;SDS011;2467;48.142;11.616;2022-10-03T00:03:56;5.63;;;3.80;;
4903;SDS011;2467;48.142;11.616;2022-10-03T00:04:55;4.55;;;4.05;;
4903;SDS011;2467;48.142;11.616;2022-10-03T00:05:44;4.45;;;4.07;;
4903;SDS011;2467;48.142;11.616;2022-10-03T00:06:27;4.10;;;3.80;;
4903;SDS011;2467;48.142;11.616;2022-10-03T00:07:20;4.47;;;4.18;;
4903;SDS011;2467;48.142;11.616;2022-10-03T00:08:12;4.78;;;4.38;;
4903;SDS011;2467;48.142;11.616;2022-10-03T00:09:04;4.68;;;4.28;;
4903;SDS011;2467;48.142;11.616;2022-10-03T00:09:54;5.18;;;4.45;;
4903;SDS011;2467;48.142;11.616;2022-10-03T00:10:37;5.38;;;4.43;;
4903;SDS011;2467;48.142;11.616;2022-10-03T00:11:26;5.40;;;4.90;;
4903;SDS011;2467;48.142;11.616;2022-10-03T00:12:12;4.70;;;4.40;;
4903;SDS011;2467;48.142;11.616;2022-10-03T00:12:56;5.15;;;4.75;;
4903;SDS011;2467;48.142;11.616;2022-10-03T00:13:34;5.05;;;4.65;;
4903;SDS011;2467;48.142;11.616;2022-10-03T00:14:16;4.93;;;4.53;;
4903;SDS011;2467;48.142;11.616;2022-10-03T00:14:57;5.43;;;4.80;;
4903;SDS011;2467;48.142;11.616;2022-10-03T00:15:36;5.72;;;5.15;;
4903;SDS011;2467;48.142;11.616;2022-10-03T00:16:15;5.05;;;4.32;;
4903;SDS011;2467;48.142;11.616;2022-10-03T00:16:52;5.70;;;5.30;;
4903;SDS011;2467;48.142;11.616;2022-10-03T00:17:36;5.43;;;5.03;;
4903;SDS011;2467;48.142;11.616;2022-10-03T00:18:22;5.47;;;4.70;;
4903;SDS011;2467;48.142;11.616;2022-10-03T00:19:10;4.90;;;4.50;;
4903;SDS011;2467;48.142;11.616;2022-10-03T00:19:54;5.30;;;4.80;;
4903;SDS011;2467;48.142;11.616;2022-10-03T00:20:39;5.60;;;5.20;;
4903;SDS011;2467;48.142;11.616;2022-10-03T00:21:25;6.10;;;4.60;;
4903;SDS011;2467;48.142;11.616;2022-10-03T00:22:08;6.13;;;5.55;;
4903;SDS011;2467;48.142;11.616;2022-10-03T00:22:50;3.85;;;3.55;;
4903;SDS011;2467;48.142;11.616;2022-10-03T00:23:26;5.30;;;4.85;;
4903;SDS011;2467;48.142;11.616;2022-10-03T00:24:12;5.10;;;4.70;;
4903;SDS011;2467;48.142;11.616;2022-10-03T00:24:56;5.03;;;4.63;;
4903;SDS011;2467;48.142;11.616;2022-10-03T00:25:44;5.43;;;4.97;;
4903;SDS011;2467;48.142;11.616;2022-10-03T00:26:27;5.10;;;4.70;;
4903;SDS011;2467;48.142;11.616;2022-10-03T00:27:07;5.00;;;4.57;;
4903;SDS011;2467;48.142;11.616;2022-10-03T00:27:45;5.53;;;5.05;;
4903;SDS011;2467;48.142;11.616;2022-10-03T00:28:38;5.53;;;5.03;;
4903;SDS011;2467;48.142;11.616;2022-10-03T00:29:31;5.97;;;5.45;;
4903;SDS011;2467;48.142;11.616;2022-10-03T00:30:18;6.63;;;5.10;;
4903;SDS011;2467;48.142;11.616;2022-10-03T00:30:55;5.55;;;4.85;;
4903;SDS011;2467;48.142;11.616;2022-10-03T00:31:41;5.20;;;4.70;;
4903;SDS011;2467;48.142;11.616;2022-10-03T00:32:25;5.63;;;5.13;;
4903;SDS011;2467;48.142;11.616;2022-10-03T00:33:12;6.28;;;5.38;;
4903;SDS011;2467;48.142;11.616;2022-10-03T00:33:52;5.65;;;5.10;;
4903;SDS011;2467;48.142;11.616;2022-10-03T00:34:40;4.82;;;4.38;;
4903;SDS011;2467;48.142;11.616;2022-10-03T00:35:28;6.93;;;6.32;;
4903;SDS011;2467;48.142;11.616;2022-10-03T00:36:20;8.07;;;5.13;;
4903;SDS011;2467;48.142;11.616;2022-10-03T00:37:17;6.10;;;5.00;;
4903;SDS011;2467;48.142;11.616;2022-10-03T00:38:02;5.45;;;5.05;;
4903;SDS011;2467;48.142;11.616;2022-10-03T00:39:02;5.40;;;5.00;;
4903;SDS011;2467;48.142;11.616;2022-10-03T00:41:07;5.82;;;4.63;;
4903;SDS011;2467;48.142;11.616;2022-10-03T00:42:06;6.05;;;5.45;;
4903;SDS011;2467;48.142;11.616;2022-10-03T00:45:41;5.50;;;4.90;;
4903;SDS011;2467;48.142;11.616;2022-10-03T00:46:46;5.13;;;4.72;;
4903;SDS011;2467;48.142;11.616;2022-10-03T00:47:45;6.65;;;5.07;;
4903;SDS011;2467;48.142;11.616;2022-10-03T00:49:59;9.07;;;5.55;;
4903;SDS011;2467;48.142;11.616;2022-10-03T00:50:52;6.50;;;5.35;;
4903;SDS011;2467;48.142;11.616;2022-10-03T00:51:53;5.90;;;5.10;;
4903;SDS011;2467;48.142;11.616;2022-10-03T00:52:37;7.18;;;6.57;;
4903;SDS011;2467;48.142;11.616;2022-10-03T00:53:26;5.97;;;5.40;;
4903;SDS011;2467;48.142;11.616;2022-10-03T00:54:19;6.25;;;5.65;;
4903;SDS011;2467;48.142;11.616;2022-10-03T00:55:17;6.22;;;5.70;;
4903;SDS011;2467;48.142;11.616;2022-10-03T00:56:05;7.22;;;6.50;;
4903;SDS011;2467;48.142;11.616;2022-10-03T00:56:55;6.72;;;6.10;;
4903;SDS011;2467;48.142;11.616;2022-10-03T00:57:43;6.15;;;5.65;;
4903;SDS011;2467;48.142;11.616;2022-10-03T00:58:34;7.22;;;6.53;;
4903;SDS011;2467;48.142;11.616;2022-10-03T00:59:19;6.15;;;5.65;;
4903;SDS011;2467;48.142;11.616;2022-10-03T01:00:12;6.05;;;5.55;;
4903;SDS011;2467;48.142;11.616;2022-10-03T01:00:48;8.25;;;6.47;;
4903;SDS011;2467;48.142;11.616;2022-10-03T01:01:23;6.55;;;5.95;;
4903;SDS011;2467;48.142;11.616;2022-10-03T01:03:05;6.65;;;6.05;;
4903;SDS011;2467;48.142;11.616;2022-10-03T01:03:53;9.05;;;8.15;;
4903;SDS011;2467;48.142;11.616;2022-10-03T01:04:39;7.00;;;6.30;;
4903;SDS011;2467;48.142;11.616;2022-10-03T01:05:27;6.60;;;5.93;;
4903;SDS011;2467;48.142;11.616;2022-10-03T01:06:15;7.07;;;6.03;;
4903;SDS011;2467;48.142;11.616;2022-10-03T01:07:01;7.30;;;6.57;;
4903;SDS011;2467;48.142;11.616;2022-10-03T01:07:50;6.95;;;5.82;;
4903;SDS011;2467;48.142;11.616;2022-10-03T01:09:02;7.32;;;6.20;;
4903;SDS011;2467;48.142;11.616;2022-10-03T01:10:00;6.93;;;6.22;;
4903;SDS011;2467;48.142;11.616;2022-10-03T01:10:41;7.90;;;6.97;;
4903;SDS011;2467;48.142;11.616;2022-10-03T01:11:26;11.50;;;6.03;;
4903;SDS011;2467;48.142;11.616;2022-10-03T01:12:18;9.20;;;6.80;;
4903;SDS011;2467;48.142;11.616;2022-10-03T01:13:09;6.80;;;6.20;;
4903;SDS011;2467;48.142;11.616;2022-10-03T01:13:56;6.78;;;6.18;;
4903;SDS011;2467;48.142;11.616;2022-10-03T01:14:44;6.78;;;6.10;;
4903;SDS011;2467;48.142;11.616;2022-10-03T01:15:27;6.88;;;6.25;;
4903;SDS011;2467;48.142;11.616;2022-10-03T01:16:11;7.93;;;7.00;;
4903;SDS011;2467;48.142;11.616;2022-10-03T01:16:55;7.40;;;6.72;;
4903;SDS011;2467;48.142;11.616;2022-10-03T01:17:34;8.80;;;7.05;;
4903;SDS011;2467;48.142;11.616;2022-10-03T01:18:21;8.68;;;7.15;;
4903;SDS011;2467;48.142;11.616;2022-10-03T01:19:04;7.55;;;6.95;;
4903;SDS011;2467;48.142;11.616;2022-10-03T01:19:58;11.60;;;7.00;;
4903;SDS011;2467;48.142;11.616;2022-10-03T01:20:50;7.25;;;6.65;;
4903;SDS011;2467;48.142;11.616;2022-10-03T01:21:31;7.85;;;7.03;;
4903;SDS011;2467;48.142;11.616;2022-10-03T01:22:18;7.70;;;6.88;;
4903;SDS011;2467;48.142;11.616;2022-10-03T01:23:23;7.80;;;7.00;;
4903;SDS011;2467;48.142;11.616;2022-10-03T01:24:35;7.13;;;6.43;;
4903;SDS011;2467;48.142;11.616;2022-10-03T01:25:26;8.38;;;7.60;;
4903;SDS011;2467;48.142;11.616;2022-10-03T01:26:18;8.23;;;7.53;;
4903;SDS011;2467;48.142;11.616;2022-10-03T01:27:01;8.73;;;7.93;;
4903;SDS011;2467;48.142;11.616;2022-10-03T01:27:36;8.32;;;7.53;;
4903;SDS011;2467;48.142;11.616;2022-10-03T01:28:36;7.60;;;6.82;;
4903;SDS011;2467;48.142;11.616;2022-10-03T01:29:39;7.55;;;6.88;;
4903;SDS011;2467;48.142;11.616;2022-10-03T01:30:36;7.30;;;6.60;;
4903;SDS011;2467;48.142;11.616;2022-10-03T01:31:12;8.07;;;7.28;;
4903;SDS011;2467;48.142;11.616;2022-10-03T01:31:50;7.45;;;6.85;;
4903;SDS011;2467;48.142;11.616;2022-10-03T01:32:29;8.02;;;6.90;;
4903;SDS011;2467;48.142;11.616;2022-10-03T01:33:09;7.75;;;7.05;;
4903;SDS011;2467;48.142;11.616;2022-10-03T01:33:47;8.27;;;7.32;;
4903;SDS011;2467;48.142;11.616;2022-10-03T01:34:26;8.73;;;7.80;;
4903;SDS011;2467;48.142;11.616;2022-10-03T01:35:05;8.90;;;7.63;;
4903;SDS011;2467;48.142;11.616;2022-10-03T01:35:49;9.88;;;7.18;;
4903;SDS011;2467;48.142;11.616;2022-10-03T01:36:27;7.90;;;7.25;;
4903;SDS011;2467;48.142;11.616;2022-10-03T01:37:04;8.40;;;7.70;;
4903;SDS011;2467;48.142;11.616;2022-10-03T01:37:44;9.15;;;8.35;;
4903;SDS011;2467;48.142;11.616;2022-10-03T01:38:24;10.43;;;9.35;;
4903;SDS011;2467;48.142;11.616;2022-10-03T01:39:01;11.00;;;7.38;;
4903;SDS011;2467;48.142;11.616;2022-10-03T01:39:41;8.30;;;7.38;;
4903;SDS011;2467;48.142;11.616;2022-10-03T01:40:23;7.68;;;6.97;;
4903;SDS011;2467;48.142;11.616;2022-10-03T01:41:00;9.60;;;7.85;;
4903;SDS011;2467;48.142;11.616;2022-10-03T01:41:41;8.95;;;8.15;;
4903;SDS011;2467;48.142;11.616;2022-10-03T01:42:28;7.85;;;7.10;;
4903;SDS011;2467;48.142;11.616;2022-10-03T01:43:14;8.77;;;7.85;;
4903;SDS011;2467;48.142;11.616;2022-10-03T01:43:53;8.52;;;7.30;;
4903;SDS011;2467;48.142;11.616;2022-10-03T01:44:35;9.18;;;8.15;;
4903;SDS011;2467;48.142;11.616;2022-10-03T01:45:21;9.02;;;8.18;;
4903;SDS011;2467;48.142;11.616;2022-10-03T01:46:02;8.60;;;7.80;;
4903;SDS011;2467;48.142;11.616;2022-10-03T01:46:41;11.82;;;8.18;;
4903;SDS011;2467;48.142;11.616;2022-10-03T01:47:20;8.45;;;7.65;;
4903;SDS011;2467;48.142;11.616;2022-10-03T01:47:56;8.05;;;7.35;;
4903;SDS011;2467;48.142;11.616;2022-10-03T01:48:34;8.60;;;7.80;;
4903;SDS011;2467;48.142;11.616;2022-10-03T01:49:15;7.80;;;7.10;;
4903;SDS011;2467;48.142;11.616;2022-10-03T01:49:53;9.38;;;8.38;;
4903;SDS011;2467;48.142;11.616;2022-10-03T01:50:31;9.73;;;8.82;;
4903;SDS011;2467;48.142;11.616;2022-10-03T01:51:09;8.73;;;7.93;;
4903;SDS011;2467;48.142;11.616;2022-10-03T01:51:44;8.43;;;7.72;;
4903;SDS011;2467;48.142;11.616;2022-10-03T01:52:30;8.93;;;8.05;;
4903;SDS011;2467;48.142;11.616;2022-10-03T01:53:11;14.98;;;8.40;;
4903;SDS011;2467;48.142;11.616;2022-10-03T01:54:01;8.05;;;7.35;;
4903;SDS011;2467;48.142;11.616;2022-10-03T01:54:45;8.82;;;7.55;;
4903;SDS011;2467;48.142;11.616;2022-10-03T01:55:28;11.23;;;9.15;;
4903;SDS011;2467;48.142;11.616;2022-10-03T01:56:07;9.82;;;7.90;;
4903;SDS011;2467;48.142;11.616;2022-10-03T01:56:49;7.80;;;7.10;;
4903;SDS011;2467;48.142;11.616;2022-10-03T01:57:28;8.93;;;7.65;;
4903;SDS011;2467;48.142;11.616;2022-10-03T01:58:07;9.23;;;7.70;;
4903;SDS011;2467;48.142;11.616;2022-10-03T01:58:46;10.40;;;8.65;;
4903;SDS011;2467;48.142;11.616;2022-10-03T01:59:27;9.73;;;8.55;;
4903;SDS011;2467;48.142;11.616;2022-10-03T02:00:09;9.85;;;8.85;;
4903;SDS011;2467;48.142;11.616;2022-10-03T02:00:44;11.05;;;8.82;;
4903;SDS011;2467;48.142;11.616;2022-10-03T02:01:24;8.50;;;7.70;;
4903;SDS011;2467;48.142;11.616;2022-10-03T02:02:05;9.57;;;7.55;;
4903;SDS011;2467;48.142;11.616;2022-10-03T02:02:44;8.63;;;7.80;;
4903;SDS011;2467;48.142;11.616;2022-10-03T02:03:20;9.45;;;8.65;;
4903;SDS011;2467;48.142;11.616;2022-10-03T02:03:59;9.07;;;8.15;;
4903;SDS011;2467;48.142;11.616;2022-10-03T02:04:40;8.98;;;8.18;;
4903;SDS011;2467;48.142;11.616;2022-10-03T02:05:17;9.55;;;8.68;;
4903;SDS011;2467;48.142;11.616;2022-10-03T02:05:56;8.88;;;8.07;;
4903;SDS011;2467;48.142;11.616;2022-10-03T02:06:39;9.85;;;8.95;;
4903;SDS011;2467;48.142;11.616;2022-10-03T02:07:21;9.02;;;8.23;;
4903;SDS011;2467;48.142;11.616;2022-10-03T02:08:01;8.32;;;7.57;;
4903;SDS011;2467;48.142;11.616;2022-10-03T02:08:41;9.63;;;8.30;;
4903;SDS011;2467;48.142;11.616;2022-10-03T02:09:24;8.68;;;7.22;;
4903;SDS011;2467;48.142;11.616;2022-10-03T02:10:04;12.45;;;8.23;;
4903;SDS011;2467;48.142;11.616;2022-10-03T02:10:44;8.13;;;7.45;;
4903;SDS011;2467;48.142;11.616;2022-10-03T02:11:26;14.57;;;8.25;;
4903;SDS011;2467;48.142;11.616;2022-10-03T02:12:05;9.73;;;8.40;;
4903;SDS011;2467;48.142;11.616;2022-10-03T02:12:40;9.75;;;8.85;;
4903;SDS011;2467;48.142;11.616;2022-10-03T02:13:22;9.02;;;8.15;;
4903;SDS011;2467;48.142;11.616;2022-10-03T02:13:58;9.20;;;8.30;;
4903;SDS011;2467;48.142;11.616;2022-10-03T02:14:48;8.60;;;7.88;;
4903;SDS011;2467;48.142;11.616;2022-10-03T02:15:26;9.55;;;8.00;;
4903;SDS011;2467;48.142;11.616;2022-10-03T02:16:01;10.00;;;8.00;;
4903;SDS011;2467;48.142;11.616;2022-10-03T02:16:42;8.43;;;7.72;;
4903;SDS011;2467;48.142;11.616;2022-10-03T02:17:20;10.55;;;9.55;;
4903;SDS011;2467;48.142;11.616;2022-10-03T02:18:00;9.75;;;7.85;;
4903;SDS011;2467;48.142;11.616;2022-10-03T02:18:46;7.80;;;7.03;;
4903;SDS011;2467;48.142;11.616;2022-10-03T02:19:25;8.70;;;7.63;;
4903;SDS011;2467;48.142;11.616;2022-10-03T02:20:02;8.52;;;7.72;;
4903;SDS011;2467;48.142;11.616;2022-10-03T02:20:40;8.57;;;7.78;;
4903;SDS011;2467;48.142;11.616;2022-10-03T02:21:18;11.40;;;9.40;;
4903;SDS011;2467;48.142;11.616;2022-10-03T02:21:52;10.05;;;9.15;;
4903;SDS011;2467;48.142;11.616;2022-10-03T02:22:28;9.73;;;8.73;;
4903;SDS011;2467;48.142;11.616;2022-10-03T02:23:04;10.05;;;9.15;;
4903;SDS011;2467;48.142;11.616;2022-10-03T02:24:04;8.93;;;8.02;;
4903;SDS011;2467;48.142;11.616;2022-10-03T02:24:49;12.55;;;8.30;;
4903;SDS011;2467;48.142;11.616;2022-10-03T02:25:30;8.85;;;7.43;;
4903;SDS011;2467;48.142;11.616;2022-10-03T02:26:37;9.10;;;8.30;;
4903;SDS011;2467;48.142;11.616;2022-10-03T02:27:37;8.82;;;7.53;;
4903;SDS011;2467;48.142;11.616;2022-10-03T02:28:37;8.45;;;7.65;;
4903;SDS011;2467;48.142;11.616;2022-10-03T02:29:44;9.15;;;8.25;;
4903;SDS011;2467;48.142;11.616;2022-10-03T02:30:41;9.65;;;8.75;;
4903;SDS011;2467;48.142;11.616;2022-10-03T02:31:33;8.95;;;7.85;;
4903;SDS011;2467;48.142;11.616;2022-10-03T02:32:42;12.50;;;8.10;;
4903;SDS011;2467;48.142;11.616;2022-10-03T02:33:35;8.35;;;7.55;;
4903;SDS011;2467;48.142;11.616;2022-10-03T02:34:40;10.93;;;7.70;;
4903;SDS011;2467;48.142;11.616;2022-10-03T02:35:46;9.88;;;7.10;;
4903;SDS011;2467;48.142;11.616;2022-10-03T02:38:03;9.00;;;7.90;;
4903;SDS011;2467;48.142;11.616;2022-10-03T02:38:48;8.43;;;7.63;;
4903;SDS011;2467;48.142;11.616;2022-10-03T02:39:45;9.30;;;8.13;;
4903;SDS011;2467;48.142;11.616;2022-10-03T02:41:02;10.70;;;7.82;;
4903;SDS011;2467;48.142;11.616;2022-10-03T02:41:55;9.90;;;7.93;;
4903;SDS011;2467;48.142;11.616;2022-10-03T02:43:04;8.35;;;7.50;;
4903;SDS011;2467;48.142;11.616;2022-10-03T02:45:29;9.25;;;8.30;;
4903;SDS011;2467;48.142;11.616;2022-10-03T02:46:35;9.15;;;7.55;;
4903;SDS011;2467;48.142;11.616;2022-10-03T02:47:48;9.02;;;7.65;;
4903;SDS011;2467;48.142;11.616;2022-10-03T02:49:16;10.05;;;7.78;;
4903;SDS011;2467;48.142;11.616;2022-10-03T02:50:21;9.15;;;8.35;;
4903;SDS011;2467;48.142;11.616;2022-10-03T02:52:40;8.20;;;7.32;;
4903;SDS011;2467;48.142;11.616;2022-10-03T02:56:14;9.60;;;7.97;;
4903;SDS011;2467;48.142;11.616;2022-10-03T02:57:10;8.93;;;8.13;;
4903;SDS011;2467;48.142;11.616;2022-10-03T02:59:17;8.85;;;7.32;;
4903;SDS011;2467;48.142;11.616;2022-10-03T03:00:16;9.77;;;8.77;;
4903;SDS011;2467;48.142;11.616;2022-10-03T03:01:00;9.50;;;7.80;;
4903;SDS011;2467;48.142;11.616;2022-10-03T03:02:11;10.90;;;7.97;;
4903;SDS011;2467;48.142;11.616;2022-10-03T03:03:21;8.93;;;8.05;;
4903;SDS011;2467;48.142;11.616;2022-10-03T03:05:28;11.40;;;9.18;;
4903;SDS011;2467;48.142;11.616;2022-10-03T03:07:17;12.50;;;9.02;;
4903;SDS011;2467;48.142;11.616;2022-10-03T03:08:12;8.32;;;7.50;;
4903;SDS011;2467;48.142;11.616;2022-10-03T03:10:43;8.52;;;7.63;;
4903;SDS011;2467;48.142;11.616;2022-10-03T03:12:43;9.52;;;8.30;;
4903;SDS011;2467;48.142;11.616;2022-10-03T03:13:42;8.77;;;7.97;;
4903;SDS011;2467;48.142;11.616;2022-10-03T03:17:11;9.85;;;7.78;;
4903;SDS011;2467;48.142;11.616;2022-10-03T03:17:55;11.48;;;7.45;;
4903;SDS011;2467;48.142;11.616;2022-10-03T03:18:35;9.48;;;8.57;;
4903;SDS011;2467;48.142;11.616;2022-10-03T03:19:12;9.25;;;7.85;;
4903;SDS011;2467;48.142;11.616;2022-10-03T03:19:59;10.55;;;8.32;;
4903;SDS011;2467;48.142;11.616;2022-10-03T03:20:48;8.73;;;7.95;;
4903;SDS011;2467;48.142;11.616;2022-10-03T03:21:33;10.15;;;8.82;;
4903;SDS011;2467;48.142;11.616;2022-10-03T03:22:17;10.05;;;8.02;;
4903;SDS011;2467;48.142;11.616;2022-10-03T03:23:06;9.07;;;8.20;;
4903;SDS011;2467;48.142;11.616;2022-10-03T03:23:53;10.30;;;9.02;;
4903;SDS011;2467;48.142;11.616;2022-10-03T03:24:44;11.40;;;9.30;;
4903;SDS011;2467;48.142;11.616;2022-10-03T03:25:34;9.30;;;8.43;;
4903;SDS011;2467;48.142;11.616;2022-10-03T03:26:33;8.95;;;8.05;;
4903;SDS011;2467;48.142;11.616;2022-10-03T03:27:35;9.25;;;8.18;;
4903;SDS011;2467;48.142;11.616;2022-10-03T03:28:21;10.10;;;8.63;;
4903;SDS011;2467;48.142;11.616;2022-10-03T03:29:06;9.73;;;8.77;;
4903;SDS011;2467;48.142;11.616;2022-10-03T03:29:46;12.23;;;8.48;;
4903;SDS011;2467;48.142;11.616;2022-10-03T03:30:29;9.75;;;8.90;;
4903;SDS011;2467;48.142;11.616;2022-10-03T03:31:08;10.38;;;9.20;;
4903;SDS011;2467;48.142;11.616;2022-10-03T03:31:44;11.25;;;9.25;;
4903;SDS011;2467;48.142;11.616;2022-10-03T03:32:31;8.75;;;7.80;;
4903;SDS011;2467;48.142;11.616;2022-10-03T03:33:14;9.45;;;7.97;;
4903;SDS011;2467;48.142;11.616;2022-10-03T03:33:57;10.00;;;8.70;;
4903;SDS011;2467;48.142;11.616;2022-10-03T03:34:39;10.38;;;9.38;;
4903;SDS011;2467;48.142;11.616;2022-10-03T03:35:21;10.75;;;9.35;;
4903;SDS011;2467;48.142;11.616;2022-10-03T03:36:04;10.50;;;9.50;;
4903;SDS011;2467;48.142;11.616;2022-10-03T03:36:46;11.45;;;10.15;;
4903;SDS011;2467;48.142;11.616;2022-10-03T03:37:25;12.48;;;9.23;;
4903;SDS011;2467;48.142;11.616;2022-10-03T03:38:07;10.55;;;9.45;;
4903;SDS011;2467;48.142;11.616;2022-10-03T03:38:49;11.30;;;10.18;;
4903;SDS011;2467;48.142;11.616;2022-10-03T03:39:37;16.35;;;10.23;;
4903;SDS011;2467;48.142;11.616;2022-10-03T03:40:28;10.25;;;9.13;;
4903;SDS011;2467;48.142;11.616;2022-10-03T03:41:16;10.93;;;9.35;;
4903;SDS011;2467;48.142;11.616;2022-10-03T03:42:01;10.95;;;9.30;;
4903;SDS011;2467;48.142;11.616;2022-10-03T03:42:58;11.00;;;9.35;;
4903;SDS011;2467;48.142;11.616;2022-10-03T03:44:00;10.65;;;9.07;;
4903;SDS011;2467;48.142;11.616;2022-10-03T03:44:51;11.23;;;9.98;;
4903;SDS011;2467;48.142;11.616;2022-10-03T03:45:34;10.88;;;9.77;;
4903;SDS011;2467;48.142;11.616;2022-10-03T03:46:20;11.70;;;10.50;;
4903;SDS011;2467;48.142;11.616;2022-10-03T03:47:09;9.80;;;8.88;;
4903;SDS011;2467;48.142;11.616;2022-10-03T03:48:09;10.85;;;9.73;;
4903;SDS011;2467;48.142;11.616;2022-10-03T03:48:58;10.55;;;9.32;;
4903;SDS011;2467;48.142;11.616;2022-10-03T03:49:41;12.40;;;10.75;;
4903;SDS011;2467;48.142;11.616;2022-10-03T03:50:30;11.18;;;10.07;;
4903;SDS011;2467;48.142;11.616;2022-10-03T03:51:14;10.23;;;9.13;;
4903;SDS011;2467;48.142;11.616;2022-10-03T03:51:55;12.90;;;11.27;;
4903;SDS011;2467;48.142;11.616;2022-10-03T03:52:44;13.77;;;11.02;;
4903;SDS011;2467;48.142;11.616;2022-10-03T03:54:35;13.18;;;10.52;;
4903;SDS011;2467;48.142;11.616;2022-10-03T03:55:32;10.10;;;9.00;;
4903;SDS011;2467;48.142;11.616;2022-10-03T03:56:25;12.68;;;10.00;;
4903;SDS011;2467;48.142;11.616;2022-10-03T03:57:17;10.73;;;9.60;;
4903;SDS011;2467;48.142;11.616;2022-10-03T03:58:02;14.95;;;11.25;;
4903;SDS011;2467;48.142;11.616;2022-10-03T03:58:44;13.05;;;10.18;;
4903;SDS011;2467;48.142;11.616;2022-10-03T03:59:27;15.35;;;10.05;;
4903;SDS011;2467;48.142;11.616;2022-10-03T04:00:12;11.68;;;9.40;;
4903;SDS011;2467;48.142;11.616;2022-10-03T04:00:53;11.45;;;10.35;;
4903;SDS011;2467;48.142;11.616;2022-10-03T04:01:44;10.57;;;9.25;;
4903;SDS011;2467;48.142;11.616;2022-10-03T04:02:30;13.32;;;10.60;;
4903;SDS011;2467;48.142;11.616;2022-10-03T04:03:26;9.93;;;8.93;;
4903;SDS011;2467;48.142;11.616;2022-10-03T04:04:11;11.00;;;8.90;;
4903;SDS011;2467;48.142;11.616;2022-10-03T04:04:55;10.10;;;8.90;;
4903;SDS011;2467;48.142;11.616;2022-10-03T04:05:43;12.00;;;10.80;;
4903;SDS011;2467;48.142;11.616;2022-10-03T04:06:29;10.60;;;9.00;;
4903;SDS011;2467;48.142;11.616;2022-10-03T04:07:16;10.95;;;9.65;;
4903;SDS011;2467;48.142;11.616;2022-10-03T04:08:01;10.77;;;9.35;;
4903;SDS011;2467;48.142;11.616;2022-10-03T04:09:03;12.02;;;9.15;;
4903;SDS011;2467;48.142;11.616;2022-10-03T04:09:58;12.70;;;9.32;;
4903;SDS011;2467;48.142;11.616;2022-10-03T04:10:44;11.18;;;9.65;;
4903;SDS011;2467;48.142;11.616;2022-10-03T04:11:25;10.82;;;9.75;;
4903;SDS011;2467;48.142;11.616;2022-10-03T04:12:04;10.20;;;9.15;;
4903;SDS011;2467;48.142;11.616;2022-10-03T04:12:54;13.45;;;9.70;;
4903;SDS011;2467;48.142;11.616;2022-10-03T04:14:07;10.57;;;9.48;;
4903;SDS011;2467;48.142;11.616;2022-10-03T04:14:58;11.90;;;8.95;;
4903;SDS011;2467;48.142;11.616;2022-10-03T04:15:45;13.95;;;9.05;;
4903;SDS011;2467;48.142;11.616;2022-10-03T04:16:36;10.93;;;9.40;;
4903;SDS011;2467;48.142;11.616;2022-10-03T04:17:49;10.52;;;9.45;;
4903;SDS011;2467;48.142;11.616;2022-10-03T04:18:53;11.50;;;10.07;;
4903;SDS011;2467;48.142;11.616;2022-10-03T04:19:39;10.32;;;9.23;;
4903;SDS011;2467;48.142;11.616;2022-10-03T04:20:23;12.50;;;10.52;;
4903;SDS011;2467;48.142;11.616;2022-10-03T04:22:23;11.25;;;9.68;;
4903;SDS011;2467;48.142;11.616;2022-10-03T04:23:07;9.55;;;8.55;;
4903;SDS011;2467;48.142;11.616;2022-10-03T04:23:55;10.15;;;9.02;;
4903;SDS011;2467;48.142;11.616;2022-10-03T04:26:00;11.07;;;9.85;;
4903;SDS011;2467;48.142;11.616;2022-10-03T04:26:44;10.45;;;9.20;;
4903;SDS011;2467;48.142;11.616;2022-10-03T04:27:40;14.88;;;10.77;;
4903;SDS011;2467;48.142;11.616;2022-10-03T04:28:29;11.10;;;10.00;;
4903;SDS011;2467;48.142;11.616;2022-10-03T04:29:19;12.65;;;9.73;;
4903;SDS011;2467;48.142;11.616;2022-10-03T04:30:12;10.45;;;9.00;;
4903;SDS011;2467;48.142;11.616;2022-10-03T04:30:50;12.13;;;10.70;;
4903;SDS011;2467;48.142;11.616;2022-10-03T04:31:36;12.43;;;10.40;;
4903;SDS011;2467;48.142;11.616;2022-10-03T04:32:23;11.57;;;10.40;;
4903;SDS011;2467;48.142;11.616;2022-10-03T04:33:15;10.95;;;9.48;;
4903;SDS011;2467;48.142;11.616;2022-10-03T04:34:05;12.13;;;10.27;;
4903;SDS011;2467;48.142;11.616;2022-10-03T04:34:55;12.38;;;9.35;;
4903;SDS011;2467;48.142;11.616;2022-10-03T04:38:00;10.57;;;8.75;;
4903;SDS011;2467;48.142;11.616;2022-10-03T04:38:43;11.32;;;9.35;;
4903;SDS011;2467;48.142;11.616;2022-10-03T04:39:24;10.48;;;9.43;;
4903;SDS011;2467;48.142;11.616;2022-10-03T04:40:08;17.73;;;11.25;;
4903;SDS011;2467;48.142;11.616;2022-10-03T04:40:57;10.45;;;9.07;;
4903;SDS011;2467;48.142;11.616;2022-10-03T04:41:38;10.70;;;9.45;;
4903;SDS011;2467;48.142;11.616;2022-10-03T04:43:12;10.50;;;9.18;;
4903;SDS011;2467;48.142;11.616;2022-10-03T04:43:51;11.48;;;10.35;;
4903;SDS011;2467;48.142;11.616;2022-10-03T04:44:33;11.48;;;9.48;;
4903;SDS011;2467;48.142;11.616;2022-10-03T04:45:23;13.73;;;11.15;;
4903;SDS011;2467;48.142;11.616;2022-10-03T04:46:09;10.82;;;9.35;;
4903;SDS011;2467;48.142;11.616;2022-10-03T04:46:53;11.60;;;10.25;;
4903;SDS011;2467;48.142;11.616;2022-10-03T04:47:30;12.35;;;11.05;;
4903;SDS011;2467;48.142;11.616;2022-10-03T04:48:12;10.07;;;9.07;;
4903;SDS011;2467;48.142;11.616;2022-10-03T04:48:48;11.23;;;9.80;;
4903;SDS011;2467;48.142;11.616;2022-10-03T04:49:30;11.73;;;10.52;;
4903;SDS011;2467;48.142;11.616;2022-10-03T04:50:12;11.77;;;10.68;;
4903;SDS011;2467;48.142;11.616;2022-10-03T04:50:57;11.07;;;10.00;;
4903;SDS011;2467;48.142;11.616;2022-10-03T04:51:43;12.70;;;9.68;;
4903;SDS011;2467;48.142;11.616;2022-10-03T04:52:27;11.20;;;10.10;;
4903;SDS011;2467;48.142;11.616;2022-10-03T04:53:12;10.80;;;9.88;;
4903;SDS011;2467;48.142;11.616;2022-10-03T04:53:54;13.85;;;9.02;;
4903;SDS011;2467;48.142;11.616;2022-10-03T04:54:35;10.90;;;9.85;;
4903;SDS011;2467;48.142;11.616;2022-10-03T04:55:20;10.93;;;9.93;;
4903;SDS011;2467;48.142;11.616;2022-10-03T04:55:59;13.27;;;10.75;;
4903;SDS011;2467;48.142;11.616;2022-10-03T04:56:47;9.00;;;8.10;;
4903;SDS011;2467;48.142;11.616;2022-10-03T04:57:26;11.82;;;9.88;;
4903;SDS011;2467;48.142;11.616;2022-10-03T04:58:06;9.88;;;9.07;;
4903;SDS011;2467;48.142;11.616;2022-10-03T04:58:49;10.65;;;9.50;;
4903;SDS011;2467;48.142;11.616;2022-10-03T04:59:37;12.10;;;9.75;;
4903;SDS011;2467;48.142;11.616;2022-10-03T05:00:20;11.13;;;9.95;;
4903;SDS011;2467;48.142;11.616;2022-10-03T05:00:56;14.10;;;10.13;;
4903;SDS011;2467;48.142;11.616;2022-10-03T05:01:38;11.25;;;9.50;;
4903;SDS011;2467;48.142;11.616;2022-10-03T05:03:18;11.43;;;9.27;;
4903;SDS011;2467;48.142;11.616;2022-10-03T05:04:07;11.13;;;9.60;;
4903;SDS011;2467;48.142;11.616;2022-10-03T05:05:58;10.52;;;9.52;;
4903;SDS011;2467;48.142;11.616;2022-10-03T05:06:40;13.43;;;10.43;;
4903;SDS011;2467;48.142;11.616;2022-10-03T05:07:19;10.77;;;9.48;;
4903;SDS011;2467;48.142;11.616;2022-10-03T05:08:01;10.32;;;9.32;;
4903;SDS011;2467;48.142;11.616;2022-10-03T05:08:43;9.40;;;8.55;;
4903;SDS011;2467;48.142;11.616;2022-10-03T05:09:23;10.80;;;8.75;;
4903;SDS011;2467;48.142;11.616;2022-10-03T05:10:04;13.27;;;10.00;;
4903;SDS011;2467;48.142;11.616;2022-10-03T05:10:56;10.43;;;9.40;;
4903;SDS011;2467;48.142;11.616;2022-10-03T05:11:47;20.15;;;11.77;;
4903;SDS011;2467;48.142;11.616;2022-10-03T05:12:33;10.70;;;9.40;;
4903;SDS011;2467;48.142;11.616;2022-10-03T05:13:15;11.15;;;8.90;;
4903;SDS011;2467;48.142;11.616;2022-10-03T05:13:56;9.50;;;8.60;;
4903;SDS011;2467;48.142;11.616;2022-10-03T05:14:42;11.82;;;10.73;;
4903;SDS011;2467;48.142;11.616;2022-10-03T05:15:23;11.27;;;10.13;;
4903;SDS011;2467;48.142;11.616;2022-10-03T05:16:02;11.00;;;9.88;;